createdAt,value
2019-03-21T00:01:02.062Z,26.23
2019-03-21T00:03:37.175Z,24.47
2019-03-21T00:06:13.589Z,26.05
2019-03-21T00:08:48.504Z,26.55
2019-03-21T00:12:17.298Z,27.22
2019-03-21T00:15:17.109Z,25.90
2019-03-21T00:17:57.550Z,27.17
2019-03-21T00:20:32.556Z,27.05
2019-03-21T00:23:07.709Z,26.33
2019-03-21T00:25:41.710Z,27.15
2019-03-21T00:28:16.416Z,26.77
2019-03-21T00:30:51.422Z,26.00
2019-03-21T00:33:25.059Z,26.65
2019-03-21T00:35:59.950Z,27.00
2019-03-21T00:38:35.070Z,27.58
2019-03-21T00:41:10.824Z,27.98
2019-03-21T00:43:45.754Z,27.15
2019-03-21T00:46:21.454Z,26.12
2019-03-21T00:48:56.710Z,26.17
2019-03-21T00:51:31.631Z,24.32
2019-03-21T00:54:06.928Z,25.10
2019-03-21T00:56:41.838Z,23.98
2019-03-21T00:59:17.112Z,24.92
2019-03-21T01:01:51.472Z,24.52
2019-03-21T01:04:28.731Z,24.02
2019-03-21T01:07:04.945Z,27.17
2019-03-21T01:09:40.018Z,28.02
2019-03-21T01:12:15.787Z,27.25
2019-03-21T01:14:50.599Z,28.40
2019-03-21T01:17:25.354Z,27.93
2019-03-21T01:20:00.889Z,27.22
2019-03-21T01:22:35.566Z,26.75
2019-03-21T01:25:12.200Z,26.87
2019-03-21T01:27:46.843Z,26.30
2019-03-21T01:30:23.062Z,26.70
2019-03-21T01:32:57.145Z,27.17
2019-03-21T01:35:32.392Z,26.73
2019-03-21T01:38:08.058Z,27.55
2019-03-21T01:40:43.430Z,27.90
2019-03-21T01:43:18.020Z,27.30
2019-03-21T01:45:52.349Z,26.45
2019-03-21T01:48:27.496Z,27.27
2019-03-21T01:51:02.304Z,26.68
2019-03-21T01:53:37.483Z,25.97
2019-03-21T01:56:12.396Z,25.62
2019-03-21T01:58:47.040Z,26.10
2019-03-21T02:01:21.719Z,26.48
2019-03-21T02:03:57.081Z,28.65
2019-03-21T02:06:32.763Z,26.48
2019-03-21T02:09:10.316Z,25.72
2019-03-21T02:11:45.501Z,26.45
2019-03-21T02:14:21.330Z,28.90
2019-03-21T02:16:56.676Z,27.42
2019-03-21T02:19:32.220Z,26.65
2019-03-21T02:22:07.180Z,27.45
2019-03-21T02:24:41.650Z,28.40
2019-03-21T02:27:16.557Z,27.95
2019-03-21T02:29:52.028Z,27.60
2019-03-21T02:32:27.061Z,25.95
2019-03-21T02:35:01.946Z,26.95
2019-03-21T02:37:36.987Z,26.75
2019-03-21T02:40:14.855Z,26.12
2019-03-21T02:42:50.122Z,27.67
2019-03-21T02:45:25.769Z,26.23
2019-03-21T02:48:00.935Z,26.05
2019-03-21T02:50:36.327Z,26.75
2019-03-21T02:53:10.544Z,26.27
2019-03-21T02:55:45.280Z,28.27
2019-03-21T02:58:20.303Z,27.40
2019-03-21T03:00:55.353Z,27.37
2019-03-21T03:03:30.483Z,26.60
2019-03-21T03:06:05.114Z,27.80
2019-03-21T03:08:39.991Z,26.25
2019-03-21T03:11:13.850Z,27.48
2019-03-21T03:13:49.316Z,28.05
2019-03-21T03:16:23.900Z,27.07
2019-03-21T03:18:58.422Z,26.82
2019-03-21T03:21:33.473Z,26.12
2019-03-21T03:24:09.032Z,26.57
2019-03-21T03:26:43.603Z,26.65
2019-03-21T03:29:19.001Z,26.45
2019-03-21T03:31:54.263Z,24.05
2019-03-21T03:34:29.757Z,25.90
2019-03-21T03:37:04.836Z,23.92
2019-03-21T03:39:38.924Z,25.10
2019-03-21T03:42:13.088Z,23.70
2019-03-21T03:44:47.571Z,24.15
2019-03-21T03:47:23.282Z,24.90
2019-03-21T03:49:58.639Z,24.80
2019-03-21T03:52:33.777Z,23.67
2019-03-21T03:55:08.307Z,24.02
2019-03-21T03:57:43.263Z,24.00
2019-03-21T04:00:21.025Z,22.85
2019-03-21T04:02:56.291Z,26.52
2019-03-21T04:05:31.196Z,25.97
2019-03-21T04:08:06.127Z,24.70
2019-03-21T04:10:42.940Z,25.48
2019-03-21T04:13:17.009Z,26.40
2019-03-21T04:15:53.786Z,28.65
2019-03-21T04:18:28.029Z,27.58
2019-03-21T04:21:02.670Z,30.02
2019-03-21T04:23:37.898Z,30.12
2019-03-21T04:26:18.625Z,27.42
2019-03-21T04:28:52.872Z,24.50
2019-03-21T04:31:27.190Z,23.32
2019-03-21T04:34:03.782Z,23.42
2019-03-21T04:36:37.976Z,24.67
2019-03-21T04:39:13.357Z,24.20
2019-03-21T04:41:47.733Z,23.98
2019-03-21T04:44:22.345Z,24.55
2019-03-21T04:46:56.679Z,23.83
2019-03-21T04:49:31.720Z,24.52
2019-03-21T04:52:06.855Z,22.05
2019-03-21T04:54:39.891Z,20.62
2019-03-21T04:57:16.048Z,22.42
2019-03-21T04:59:51.574Z,21.73
2019-03-21T05:02:27.282Z,19.87
2019-03-21T05:05:01.924Z,19.65
2019-03-21T05:07:36.606Z,20.80
2019-03-21T05:10:12.436Z,21.05
2019-03-21T05:12:47.903Z,21.52
2019-03-21T05:15:25.673Z,23.80
2019-03-21T05:18:03.271Z,26.05
2019-03-21T05:20:38.309Z,27.22
2019-03-21T05:23:13.233Z,27.20
2019-03-21T05:25:48.553Z,29.00
2019-03-21T05:28:23.605Z,29.15
2019-03-21T05:31:01.705Z,23.15
2019-03-21T05:33:36.760Z,22.32
2019-03-21T05:36:11.413Z,19.92
2019-03-21T05:38:46.524Z,17.67
2019-03-21T05:41:21.146Z,20.82
2019-03-21T05:44:00.564Z,24.52
2019-03-21T05:46:34.782Z,22.40
2019-03-21T05:49:10.069Z,22.45
2019-03-21T05:51:44.670Z,20.62
2019-03-21T05:54:19.706Z,22.10
2019-03-21T05:56:54.043Z,19.37
2019-03-21T05:59:29.689Z,19.35
2019-03-21T06:02:03.922Z,18.50
2019-03-21T06:04:38.700Z,19.05
2019-03-21T06:07:46.199Z,17.80
2019-03-21T06:10:20.738Z,17.77
2019-03-21T06:12:55.291Z,18.10
2019-03-21T06:15:31.879Z,17.35
2019-03-21T06:19:07.494Z,18.17
2019-03-21T06:22:48.569Z,18.23
2019-03-21T06:26:07.646Z,18.17
2019-03-21T06:28:41.121Z,18.20
2019-03-21T06:31:16.258Z,18.15
2019-03-21T06:33:51.009Z,16.90
2019-03-21T06:36:24.998Z,18.92
2019-03-21T06:39:00.475Z,17.85
2019-03-21T06:41:35.119Z,19.48
2019-03-21T06:44:10.216Z,18.10
2019-03-21T06:46:49.664Z,17.48
2019-03-21T06:49:22.013Z,18.95
2019-03-21T06:51:57.336Z,18.40
2019-03-21T06:54:31.916Z,18.37
2019-03-21T06:57:06.219Z,18.62
2019-03-21T06:59:41.019Z,17.92
2019-03-21T07:02:15.575Z,16.85
2019-03-21T07:04:50.283Z,17.57
2019-03-21T07:07:25.337Z,17.17
2019-03-21T07:09:59.744Z,17.80
2019-03-21T07:12:34.332Z,18.65
2019-03-21T07:15:09.492Z,18.77
2019-03-21T07:17:43.618Z,17.40
2019-03-21T07:20:18.283Z,17.95
2019-03-21T07:22:52.050Z,15.58
2019-03-21T07:25:25.361Z,16.25
2019-03-21T07:27:58.782Z,17.55
2019-03-21T07:30:32.167Z,16.32
2019-03-21T07:33:09.249Z,17.42
2019-03-21T07:35:44.053Z,17.17
2019-03-21T07:38:18.880Z,17.20
2019-03-21T07:40:52.825Z,18.10
2019-03-21T07:43:27.109Z,15.98
2019-03-21T07:46:01.300Z,16.75
2019-03-21T07:48:35.872Z,16.42
2019-03-21T07:51:10.550Z,18.37
2019-03-21T07:53:44.329Z,17.35
2019-03-21T07:56:18.455Z,18.73
2019-03-21T07:58:53.522Z,18.92
2019-03-21T08:01:30.369Z,17.70
2019-03-21T08:04:04.537Z,17.15
2019-03-21T08:06:38.994Z,18.62
2019-03-21T08:09:13.211Z,17.40
2019-03-21T08:11:47.239Z,18.17
2019-03-21T08:14:20.553Z,16.23
2019-03-21T08:16:54.393Z,17.50
2019-03-21T08:19:27.979Z,16.95
2019-03-21T08:22:00.825Z,17.57
2019-03-21T08:24:34.066Z,17.52
2019-03-21T08:27:08.527Z,16.35
2019-03-21T08:29:42.097Z,16.67
2019-03-21T08:32:15.779Z,17.10
2019-03-21T08:34:49.891Z,16.73
2019-03-21T08:37:24.519Z,16.97
2019-03-21T08:39:59.346Z,16.73
2019-03-21T08:42:32.758Z,17.35
2019-03-21T08:45:07.102Z,15.93
2019-03-21T08:47:41.524Z,16.48
2019-03-21T08:50:15.447Z,16.82
2019-03-21T08:52:49.717Z,15.55
2019-03-21T08:55:23.055Z,17.15
2019-03-21T08:57:56.937Z,16.95
2019-03-21T09:00:34.490Z,15.28
2019-03-21T09:03:06.985Z,16.32
2019-03-21T09:05:40.775Z,16.12
2019-03-21T09:08:14.788Z,15.93
2019-03-21T09:10:48.832Z,17.05
2019-03-21T09:13:22.835Z,16.35
2019-03-21T09:15:57.475Z,18.10
2019-03-21T09:18:30.944Z,15.35
2019-03-21T09:21:03.686Z,17.12
2019-03-21T09:23:36.961Z,15.75
2019-03-21T09:26:10.762Z,17.23
2019-03-21T09:28:44.622Z,17.57
2019-03-21T09:31:17.509Z,16.77
2019-03-21T09:33:52.825Z,16.70
2019-03-21T09:36:27.866Z,17.25
2019-03-21T09:39:00.611Z,16.50
2019-03-21T09:41:34.266Z,17.10
2019-03-21T09:44:07.023Z,16.77
2019-03-21T09:46:50.451Z,16.93
2019-03-21T09:49:15.103Z,17.80
2019-03-21T09:51:49.156Z,17.95
2019-03-21T09:54:23.732Z,18.48
2019-03-21T09:56:57.968Z,18.60
2019-03-21T09:59:32.310Z,19.25
2019-03-21T10:02:07.203Z,17.57
2019-03-21T10:04:40.421Z,16.95
2019-03-21T10:07:14.467Z,17.12
2019-03-21T10:09:48.304Z,19.27
2019-03-21T10:12:23.632Z,17.42
2019-03-21T10:14:57.482Z,17.92
2019-03-21T10:17:30.775Z,17.75
2019-03-21T10:20:04.143Z,17.40
2019-03-21T10:22:38.169Z,17.25
2019-03-21T10:25:11.391Z,18.12
2019-03-21T10:27:46.447Z,18.02
2019-03-21T10:30:43.272Z,17.80
2019-03-21T10:33:18.771Z,17.42
2019-03-21T10:35:53.205Z,17.65
2019-03-21T10:38:28.714Z,18.50
2019-03-21T10:41:02.492Z,16.77
2019-03-21T10:43:36.895Z,17.65
2019-03-21T10:46:09.780Z,18.10
2019-03-21T10:48:43.609Z,18.07
2019-03-21T10:51:16.489Z,18.65
2019-03-21T10:53:49.916Z,17.67
2019-03-21T10:56:23.573Z,18.67
2019-03-21T10:58:57.433Z,19.77
2019-03-21T11:01:32.234Z,15.68
2019-03-21T11:04:05.535Z,15.13
2019-03-21T11:06:38.701Z,16.40
2019-03-21T11:09:14.189Z,14.53
2019-03-21T11:11:48.874Z,15.53
2019-03-21T11:14:22.105Z,14.60
2019-03-21T11:16:55.776Z,16.05
2019-03-21T11:19:29.456Z,15.20
2019-03-21T11:22:06.544Z,14.98
2019-03-21T11:24:40.871Z,15.50
2019-03-21T11:27:14.451Z,14.47
2019-03-21T11:29:47.279Z,14.80
2019-03-21T11:32:22.469Z,15.08
2019-03-21T11:34:56.442Z,13.98
2019-03-21T11:37:31.137Z,14.90
2019-03-21T11:40:05.958Z,11.60
2019-03-21T11:42:40.537Z,13.78
2019-03-21T11:45:15.514Z,13.78
2019-03-21T11:47:50.475Z,13.50
2019-03-21T11:50:25.692Z,14.45
2019-03-21T11:52:59.396Z,14.78
2019-03-21T11:55:33.325Z,12.65
2019-03-21T11:58:08.047Z,13.10
2019-03-21T12:00:44.999Z,14.35
2019-03-21T12:03:19.427Z,13.00
2019-03-21T12:05:54.003Z,13.78
2019-03-21T12:08:28.557Z,12.85
2019-03-21T12:11:04.139Z,13.35
2019-03-21T12:13:39.286Z,13.55
2019-03-21T12:16:13.892Z,12.47
2019-03-21T12:18:48.858Z,14.38
2019-03-21T12:21:23.767Z,15.58
2019-03-21T12:23:58.327Z,13.50
2019-03-21T12:26:33.399Z,13.80
2019-03-21T12:29:08.484Z,16.70
2019-03-21T12:31:43.070Z,13.43
2019-03-21T12:34:18.229Z,11.15
2019-03-21T12:36:52.543Z,11.55
2019-03-21T12:39:28.965Z,12.75
2019-03-21T12:42:03.504Z,9.55
2019-03-21T12:44:37.618Z,11.57
2019-03-21T12:47:13.505Z,12.13
2019-03-21T12:49:47.922Z,11.97
2019-03-21T12:52:22.577Z,12.33
2019-03-21T12:54:57.174Z,12.78
2019-03-21T12:57:32.103Z,12.40
2019-03-21T13:00:07.881Z,11.55
2019-03-21T13:02:43.274Z,12.35
2019-03-21T13:05:28.515Z,10.72
2019-03-21T13:08:02.517Z,11.83
2019-03-21T13:10:36.881Z,11.93
2019-03-21T13:13:10.648Z,11.25
2019-03-21T13:15:43.904Z,9.73
2019-03-21T13:18:17.078Z,11.18
2019-03-21T13:20:50.973Z,11.95
2019-03-21T13:23:25.475Z,11.10
2019-03-21T13:25:59.251Z,9.78
2019-03-21T13:28:32.855Z,10.00
2019-03-21T13:31:07.363Z,12.20
2019-03-21T13:33:40.691Z,8.83
2019-03-21T13:36:13.799Z,9.28
2019-03-21T13:38:48.099Z,9.85
2019-03-21T13:41:21.826Z,9.90
2019-03-21T13:43:55.986Z,10.68
2019-03-21T13:46:29.980Z,10.23
2019-03-21T13:49:03.117Z,9.55
2019-03-21T13:51:38.851Z,9.18
2019-03-21T13:54:12.719Z,9.38
2019-03-21T13:56:46.960Z,8.58
2019-03-21T13:59:21.062Z,9.85
2019-03-21T14:01:54.731Z,11.15
2019-03-21T14:04:29.159Z,11.22
2019-03-21T14:07:04.044Z,10.28
2019-03-21T14:09:38.490Z,9.93
2019-03-21T14:12:12.952Z,11.40
2019-03-21T14:14:46.273Z,9.43
2019-03-21T14:17:22.280Z,8.60
2019-03-21T14:19:55.717Z,7.92
2019-03-21T14:22:29.406Z,7.60
2019-03-21T14:25:03.908Z,9.03
2019-03-21T14:27:36.714Z,8.65
2019-03-21T14:30:10.536Z,9.45
2019-03-21T14:32:45.494Z,8.70
2019-03-21T14:35:20.544Z,8.53
2019-03-21T14:37:54.240Z,10.08
2019-03-21T14:40:27.511Z,9.63
2019-03-21T14:43:03.228Z,10.18
2019-03-21T14:45:36.845Z,10.28
2019-03-21T14:48:10.570Z,10.23
2019-03-21T14:50:43.830Z,10.68
2019-03-21T14:53:28.276Z,11.45
2019-03-21T14:55:54.973Z,11.20
2019-03-21T14:58:29.913Z,12.15
2019-03-21T15:01:04.715Z,11.30
2019-03-21T15:03:37.585Z,11.63
2019-03-21T15:06:13.525Z,11.85
2019-03-21T15:08:48.000Z,12.63
2019-03-21T15:11:22.687Z,12.53
2019-03-21T15:13:58.074Z,12.65
2019-03-21T15:16:32.861Z,12.53
2019-03-21T15:19:07.868Z,13.50
2019-03-21T15:21:41.602Z,12.40
2019-03-21T15:24:14.365Z,13.83
2019-03-21T15:26:47.136Z,13.30
2019-03-21T15:29:20.604Z,14.43
2019-03-21T15:31:55.469Z,14.53
2019-03-21T15:34:28.457Z,12.85
2019-03-21T15:37:02.103Z,13.60
2019-03-21T15:39:35.454Z,13.38
2019-03-21T15:42:08.695Z,13.50
2019-03-21T15:44:41.877Z,14.07
2019-03-21T15:47:16.254Z,13.93
2019-03-21T15:49:51.447Z,14.28
2019-03-21T15:52:25.393Z,13.72
2019-03-21T15:54:59.493Z,14.28
2019-03-21T15:57:33.299Z,13.45
2019-03-21T16:00:07.403Z,13.55
2019-03-21T16:02:41.422Z,15.18
2019-03-21T16:05:14.828Z,16.52
2019-03-21T16:07:49.952Z,16.62
2019-03-21T16:10:25.479Z,17.50
2019-03-21T16:13:00.500Z,16.95
2019-03-21T16:15:36.162Z,16.95
2019-03-21T16:18:10.899Z,15.65
2019-03-21T16:20:46.124Z,16.20
2019-03-21T16:23:20.136Z,16.67
2019-03-21T16:25:55.062Z,17.05
2019-03-21T16:28:29.984Z,16.17
2019-03-21T16:31:04.943Z,16.55
2019-03-21T16:33:39.489Z,15.78
2019-03-21T16:36:14.595Z,16.30
2019-03-21T16:38:49.739Z,15.15
2019-03-21T16:41:23.674Z,14.23
2019-03-21T16:43:56.430Z,14.93
2019-03-21T16:46:30.262Z,15.53
2019-03-21T16:49:04.229Z,15.85
2019-03-21T16:51:39.863Z,16.52
2019-03-21T16:54:20.751Z,15.48
2019-03-21T16:56:55.855Z,14.65
2019-03-21T16:59:29.154Z,15.18
2019-03-21T17:02:02.905Z,15.45
2019-03-21T17:04:36.104Z,17.48
2019-03-21T17:07:08.815Z,18.73
2019-03-21T17:09:43.234Z,20.75
2019-03-21T17:12:17.840Z,21.40
2019-03-21T17:14:52.674Z,21.35
2019-03-21T17:17:26.854Z,22.27
2019-03-21T17:20:01.496Z,21.93
2019-03-21T17:22:35.341Z,26.20
2019-03-21T17:25:09.351Z,24.25
2019-03-21T17:27:46.317Z,23.38
2019-03-21T17:30:20.940Z,23.62
2019-03-21T17:32:56.553Z,23.87
2019-03-21T17:35:29.943Z,22.20
2019-03-21T17:38:03.350Z,40.45
2019-03-21T17:40:38.158Z,40.23
2019-03-21T17:43:12.493Z,42.20
2019-03-21T17:45:45.282Z,36.70
2019-03-21T17:48:19.178Z,34.30
2019-03-21T17:50:53.210Z,28.65
2019-03-21T17:53:26.499Z,25.45
2019-03-21T17:56:01.530Z,23.83
2019-03-21T17:58:36.599Z,23.57
2019-03-21T18:01:10.738Z,20.65
2019-03-21T18:03:45.495Z,21.45
2019-03-21T18:06:19.559Z,24.43
2019-03-21T18:08:54.244Z,22.17
2019-03-21T18:11:28.649Z,20.82
2019-03-21T18:14:03.234Z,22.90
2019-03-21T18:16:38.058Z,22.55
2019-03-21T18:19:12.972Z,23.30
2019-03-21T18:21:47.450Z,24.52
2019-03-21T18:24:22.403Z,22.75
2019-03-21T18:26:56.298Z,21.50
2019-03-21T18:29:30.313Z,22.82
2019-03-21T18:32:03.112Z,24.87
2019-03-21T18:34:36.459Z,26.82
2019-03-21T18:37:10.406Z,29.50
2019-03-21T18:39:43.493Z,33.42
2019-03-21T18:42:22.026Z,31.77
2019-03-21T18:44:54.790Z,35.03
2019-03-21T18:47:29.949Z,33.48
2019-03-21T18:50:04.143Z,34.18
2019-03-21T18:52:38.099Z,33.92
2019-03-21T18:55:12.192Z,32.45
2019-03-21T18:57:45.559Z,29.82
2019-03-21T19:00:19.354Z,28.15
2019-03-21T19:02:52.234Z,29.55
2019-03-21T19:05:26.795Z,26.95
2019-03-21T19:08:00.138Z,30.68
2019-03-21T19:10:34.121Z,28.75
2019-03-21T19:13:09.175Z,32.10
2019-03-21T19:15:42.445Z,34.80
2019-03-21T19:18:16.024Z,36.28
2019-03-21T19:20:50.445Z,36.23
2019-03-21T19:23:25.074Z,35.75
2019-03-21T19:25:59.403Z,34.30
2019-03-21T19:28:33.307Z,28.85
2019-03-21T19:31:07.062Z,29.42
2019-03-21T19:33:40.539Z,29.25
2019-03-21T19:36:14.802Z,26.65
2019-03-21T19:38:49.246Z,29.87
2019-03-21T19:41:22.595Z,34.73
2019-03-21T19:43:56.267Z,31.75
2019-03-21T19:46:30.299Z,29.12
2019-03-21T19:49:06.656Z,38.88
2019-03-21T19:51:48.244Z,36.75
2019-03-21T19:54:27.819Z,40.63
2019-03-21T19:57:09.443Z,40.98
2019-03-21T19:59:43.769Z,38.35
2019-03-21T20:02:19.921Z,42.53
2019-03-21T20:04:56.029Z,45.83
2019-03-21T20:07:32.853Z,50.70
2019-03-21T20:10:07.823Z,48.98
2019-03-21T20:12:42.110Z,53.15
2019-03-21T20:15:15.973Z,48.55
2019-03-21T20:17:49.974Z,46.88
2019-03-21T20:20:26.142Z,40.67
2019-03-21T20:23:02.028Z,42.13
2019-03-21T20:25:42.687Z,40.85
2019-03-21T20:28:11.589Z,42.53
2019-03-21T20:30:44.825Z,43.25
2019-03-21T20:33:19.791Z,43.87
2019-03-21T20:35:53.134Z,42.67
2019-03-21T20:38:27.881Z,45.55
2019-03-21T20:41:03.476Z,47.98
2019-03-21T20:43:37.495Z,47.48
2019-03-21T20:46:12.367Z,45.55
2019-03-21T20:48:41.818Z,50.38
2019-03-21T20:51:15.533Z,52.43
2019-03-21T20:53:49.993Z,54.05
2019-03-21T20:56:23.379Z,51.98
2019-03-21T20:58:56.618Z,62.58
2019-03-21T21:01:30.651Z,53.95
2019-03-21T21:04:03.798Z,44.05
2019-03-21T21:06:37.120Z,41.23
2019-03-21T21:09:12.349Z,40.48
2019-03-21T21:11:47.476Z,36.53
2019-03-21T21:14:22.424Z,33.30
2019-03-21T21:16:58.084Z,31.90
2019-03-21T21:19:32.125Z,32.85
2019-03-21T21:22:07.303Z,31.60
2019-03-21T21:24:40.164Z,29.45
2019-03-21T21:27:13.542Z,28.50
2019-03-21T21:29:46.890Z,27.45
2019-03-21T21:32:22.067Z,29.35
2019-03-21T21:34:56.985Z,29.27
2019-03-21T21:37:30.806Z,28.57
2019-03-21T21:40:04.488Z,28.85
2019-03-21T21:42:38.492Z,29.32
2019-03-21T21:45:13.351Z,31.57
2019-03-21T21:48:11.984Z,29.65
2019-03-21T21:50:55.018Z,29.25
2019-03-21T21:53:29.677Z,29.80
2019-03-21T21:56:04.288Z,30.27
2019-03-21T21:58:38.877Z,30.15
2019-03-21T22:01:13.980Z,30.55
2019-03-21T22:03:49.078Z,30.10
2019-03-21T22:06:24.095Z,31.52
2019-03-21T22:08:58.831Z,32.85
2019-03-21T22:11:33.611Z,32.33
2019-03-21T22:14:09.004Z,33.48
2019-03-21T22:16:44.032Z,34.45
2019-03-21T22:19:18.518Z,34.38
2019-03-21T22:21:53.500Z,33.53
2019-03-21T22:24:28.545Z,34.92
2019-03-21T22:27:02.714Z,33.90
2019-03-21T22:29:37.308Z,34.90
2019-03-21T22:32:11.535Z,35.38
2019-03-21T22:34:46.592Z,36.00
2019-03-21T22:37:21.771Z,34.88
2019-03-21T22:39:56.904Z,35.92
2019-03-21T22:42:32.044Z,35.28
2019-03-21T22:45:07.770Z,35.68
2019-03-21T22:47:43.137Z,36.85
2019-03-21T22:50:17.560Z,35.85
2019-03-21T22:52:51.775Z,36.17
2019-03-21T22:55:27.121Z,36.98
2019-03-21T22:58:02.833Z,37.83
2019-03-21T23:00:45.257Z,38.42
2019-03-21T23:03:20.086Z,38.35
2019-03-21T23:05:55.233Z,38.23
2019-03-21T23:08:30.258Z,38.20
2019-03-21T23:11:04.992Z,37.03
2019-03-21T23:13:39.929Z,36.75
2019-03-21T23:16:14.958Z,37.95
2019-03-21T23:18:49.701Z,37.15
2019-03-21T23:21:24.728Z,37.58
2019-03-21T23:23:59.385Z,39.08
2019-03-21T23:26:34.365Z,38.28
2019-03-21T23:29:09.546Z,38.80
2019-03-21T23:31:44.551Z,37.67
2019-03-21T23:34:19.432Z,37.05
2019-03-21T23:36:54.423Z,38.75
2019-03-21T23:39:29.112Z,39.35
2019-03-21T23:42:04.110Z,38.73
2019-03-21T23:44:38.882Z,38.88
2019-03-21T23:47:13.539Z,39.10
2019-03-21T23:49:48.477Z,39.45
2019-03-21T23:52:23.711Z,39.23
2019-03-21T23:54:58.756Z,36.33
2019-03-21T23:57:34.522Z,40.30
